Station: Moranbah Airport  

  Atmospheric Gas Attenuation - ITU Rec 676-11   ----------------- dB/100km -----------------
Date Time Temp RH % AH g/m3 Dew Point Wind Direction Speed kph Gust kph Barometer mB Rainfall Since 9am 24GHz 47GHz 76GHz 122GHz 134GHz 241GHz
04/05 19:20 20.8 68 12.31 14.7 11 13 1015.2 0 27.1 29.9 51.0 134.5 137.7 476.7
04/05 19:10 21.6 66 12.52 15 11 11 1015.1 0 27.5 29.9 51.4 135.4 139.1 481.7
04/05 19:00 22 64 12.42 14.9 13 15 1015 0 27.2 29.6 50.7 133.6 137.0 474.5
04/05 18:50 22.1 64 12.49 15 13 13 1014.8 0 27.4 29.7 50.9 134.2 137.8 477.2
04/05 18:40 22.7 61 12.32 15 13 13 1014.7 0 27.0 29.2 49.8 131.3 134.4 465.6
04/05 18:30 22.8 62 12.6 15.1 13 15 1014.7 0 27.6 29.7 50.9 134.1 138.0 478.0
04/05 18:20 22.9 62 12.67 15.2 13 13 1014.5 0 27.7 29.7 51.1 134.7 138.7 480.6
04/05 18:10 23.1 61 12.61 15.2 13 15 1014.5 0 27.6 29.6 50.7 133.7 137.5 476.5
04/05 18:00 23.5 59 12.48 15 13 15 1014.4 0 27.3 29.2 49.9 131.6 135.1 468.1
04/05 17:50 24.3 57 12.61 15.2 13 15 1014.3 0 27.5 29.2 50.0 131.7 135.4 469.3
04/05 17:40 25.2 55 12.8 15.5 15 17 1014.2 0 27.8 29.2 50.1 132.2 136.3 472.5
04/05 17:30 25.9 53 12.83 15.6 15 22 1014.2 0 27.9 29.0 49.8 131.3 135.5 469.7
04/05 17:20 26.6 50 12.59 15.6 15 17 1014 0 27.3 28.4 48.4 127.7 131.2 454.8
04/05 17:10 27.3 50 13.08 16 17 20 1014 0 28.3 28.9 49.9 131.6 136.2 472.4
04/05 17:00 27.8 48 12.91 15.8 17 20 1013.9 0 27.9 28.5 48.9 129.0 133.2 461.9
04/05 16:50 28.2 47 12.92 16.1 13 17 1013.8 0 27.9 28.4 48.7 128.5 132.6 460.0
04/05 16:40 27.9 46 12.44 15.5 15 17 1013.6 0 26.9 27.7 47.1 124.1 127.2 440.8
04/05 16:30 27.9 46 12.44 15.2 15 19 1013.6 0 26.9 27.7 47.1 124.1 127.2 440.8
04/05 16:20 28 46 12.51 15.3 15 19 1013.5 0 27.0 27.8 47.3 124.6 127.8 443.2
04/05 16:10 28 46 12.51 15.6 15 17 1013.4 0 27.0 27.8 47.3 124.6 127.8 443.2
04/05 16:00 28.3 46 12.72 15.6 13 17 1013.3 0 27.5 28.0 47.9 126.2 129.9 450.6
04/05 15:50 28.7 45 12.72 15.6 15 15 1013.4 0 27.4 27.9 47.6 125.6 129.3 448.4
04/05 15:40 29.6 43 12.76 15.7 20 22 1013.3 0 27.5 27.7 47.3 124.6 128.3 445.0
04/05 15:30 29.1 45 13 16 13 20 1013.3 0 28.0 28.2 48.5 127.8 132.1 458.2
04/05 15:20 28.9 43 12.29 15.1 15 17 1013.4 0 26.5 27.2 45.9 121.0 123.7 428.9
04/05 15:10 29.7 43 12.83 15.8 13 15 1013.4 0 27.6 27.7 47.5 125.1 129.0 447.5
04/05 15:00 30.2 42 12.88 16.2 13 22 1013.4 0 27.7 27.7 47.4 124.9 128.8 446.8
04/05 14:50 29.4 44 12.92 15.9 11 13 1013.3 0 27.8 28.0 48.0 126.5 130.6 453.0
04/05 14:40 28.9 45 12.86 15.8 15 17 1013.5 0 27.7 28.0 48.1 126.7 130.7 453.3
04/05 14:30 28.9 44 12.57 15.4 13 19 1013.4 0 27.1 27.6 47.0 123.8 127.1 440.8
04/05 14:20 29.5 44 12.99 16 15 17 1013.5 0 27.9 28.0 48.2 127.1 131.3 455.5
04/05 14:10 29.7 45 13.43 16.5 13 15 1013.6 0 28.8 28.7 49.7 131.2 136.4 473.4
04/05 14:00 28.1 46 12.58 15.7 15 20 1013.7 0 27.2 27.9 47.5 125.2 128.6 445.8
04/05 13:50 29.8 43 12.9 15.9 15 19 1013.9 0 27.7 27.8 47.7 125.7 129.7 450.1
04/05 13:40 28.9 46 13.14 16.1 13 17 1014 0 28.3 28.5 49.1 129.6 134.2 465.6
04/05 13:30 29.9 43 12.97 16.3 17 24 1014.1 0 27.9 27.9 47.9 126.3 130.5 452.6
04/05 13:20 30.1 42 12.81 16.1 19 20 1014 0 27.5 27.6 47.2 124.4 128.2 444.6
04/05 13:10 29.3 44 12.85 16.1 13 20 1014.3 0 27.7 27.9 47.8 126.1 130.0 450.9
04/05 13:00 29.1 45 13 16 17 28 1014.5 0 28.0 28.2 48.5 127.9 132.2 458.6
04/05 12:50 28.9 45 12.86 15.8 19 22 1014.7 0 27.7 28.1 48.1 126.8 130.8 453.7
04/05 12:40 28.5 47 13.14 16.1 15 17 1014.8 0 28.3 28.6 49.4 130.3 135.0 468.3
04/05 12:30 28.1 46 12.58 15.7 17 32 1015 0 27.2 27.9 47.5 125.3 128.7 446.2
04/05 12:20 28.3 47 12.99 15.9 22 30 1015.2 0 28.0 28.5 49.0 129.2 133.5 463.0
04/05 12:10 28.1 48 13.13 16.1 20 24 1015.4 0 28.3 28.8 49.7 131.0 135.6 470.4
04/05 12:00 27.6 51 13.57 16.6 19 26 1015.7 0 29.3 29.6 51.7 136.4 142.1 493.1
04/05 11:50 27.6 53 14.1 17.2 17 22 1015.8 0 30.4 30.5 53.8 142.0 149.0 517.1
04/05 11:40 28.1 53 14.49 17.6 15 20 1016 0 31.2 31.0 55.0 145.2 153.2 531.7
04/05 11:30 27.3 54 14.13 17.2 20 30 1016.3 0 30.5 30.7 54.2 142.9 150.0 520.7
04/05 11:20 27.7 54 14.45 17.8 22 26 1016.5 0 31.1 31.0 55.2 145.6 153.5 532.7
04/05 11:10 26.9 55 14.08 17.1 26 30 1016.8 0 30.4 30.7 54.3 143.1 150.2 521.2
04/05 11:00 27 57 14.67 17.8 22 30 1017 0 31.6 31.7 56.6 149.4 157.9 548.0
04/05 10:50 26.8 60 15.27 18.4 17 20 1017.2 0 32.9 32.8 59.2 156.4 166.4 577.8
04/05 10:40 26.5 58 14.52 17.8 20 24 1017.3 0 31.3 31.6 56.3 148.7 156.9 544.5
04/05 10:30 25 63 14.5 17.5 20 28 1017.3 0 31.4 32.1 57.4 151.4 159.7 554.2
04/05 10:20 25.2 63 14.67 17.7 20 22 1017.4 0 31.8 32.4 57.9 152.9 161.6 560.9
04/05 10:10 25.8 59 14.2 17.4 24 30 1017.4 0 30.7 31.4 55.5 146.5 154.0 534.4
04/05 10:00 26.6 59 14.85 17.9 22 30 1017.4 0 32.0 32.1 57.6 152.2 161.2 559.4
04/05 09:50 25.8 62 14.93 18 22 26 1017.4 0 32.3 32.6 58.6 154.6 163.9 569.0
04/05 09:40 25.4 62 14.6 17.6 24 28 1017.3 0 31.6 32.2 57.5 151.7 160.3 556.1
04/05 09:30 24.8 66 15.02 18 19 26 1017.3 0 32.5 33.1 59.7 157.6 167.3 580.7
04/05 09:20 24.7 67 15.16 18.2 22 24 1017.2 0 32.8 33.4 60.4 159.4 169.5 588.2
04/05 09:10 23.9 69 14.93 17.9 20 22 1017.2 0 32.4 33.3 60.0 158.4 168.0 583.0
04/05 09:00 23.3 73 15.26 18.2 17 24 1017.2 0 33.2 34.1 61.9 163.5 174.1 604.0
04/05 08:50 22.9 76 15.53 18.4 17 20 1017.1 0.2 33.8 34.7 63.4 167.5 178.9 620.7
04/05 08:40 22.4 78 15.49 18.4 17 19 1017.1 0.2 33.7 34.9 63.7 168.1 179.5 622.8
04/05 08:30 21.6 83 15.74 18.6 17 24 1017 0.2 34.3 35.6 65.5 172.9 185.1 642.2
04/05 08:20 21.5 87 16.4 19.2 15 17 1017.1 0.2 35.7 36.9 68.6 181.2 195.3 677.7
04/05 08:10 20.8 89 16.11 18.9 11 13 1017.1 0.2 35.2 36.7 67.9 179.3 192.7 668.6
04/05 08:00 20 93 16.07 18.8 11 15 1017.2 0.2 35.2 37.0 68.4 180.7 194.2 673.6
04/05 07:50 19.6 96 16.2 18.9 11 11 1017.2 0.2 35.5 37.4 69.4 183.3 197.2 684.2
04/05 07:40 19.2 97 15.99 18.7 11 13 1017.2 0.2 35.1 37.2 68.7 181.6 195.0 676.4
04/05 07:30 18.9 97 15.71 18.4 9 13 1017 0.2 34.5 36.7 67.7 178.8 191.4 663.9
04/05 07:20 18.7 98 15.69 18.4 9 11 1017 0.2 34.5 36.8 67.8 179.0 191.6 664.5
04/05 07:10 18.2 98 15.23 17.9 9 9 1017 0.2 33.5 36.1 66.0 174.3 185.8 644.1
04/05 07:00 17.9 98 14.96 17.6 7 9 1017 0.2 33.0 35.8 65.0 171.6 182.4 632.1
04/05 06:50 17.5 98 14.61 17.2 9 11 1016.7 0.2 32.2 35.3 63.7 168.1 177.9 616.6
04/05 06:40 17.2 98 14.35 16.9 9 9 1016.5 0.2 31.7 34.9 62.7 165.5 174.6 605.1
04/05 06:30 17 97 14.03 16.5 9 11 1016.3 0.2 31.0 34.4 61.4 162.0 170.2 589.6
04/05 06:20 17.2 97 14.2 16.7 9 9 1016.2 0.2 31.4 34.6 62.0 163.6 172.3 597.0
04/05 06:10 17.3 97 14.29 16.8 9 9 1016 0.2 31.6 34.7 62.3 164.5 173.4 600.9
04/05 06:00 17.6 97 14.55 17.1 9 13 1016 0.2 32.1 35.1 63.3 167.1 176.7 612.3
04/05 05:50 17.8 97 14.72 17.3 11 13 1015.8 0.2 32.5 35.3 63.9 168.7 178.8 619.6
04/05 05:40 17.5 97 14.46 17 9 11 1015.8 0.2 31.9 34.9 62.9 166.1 175.5 608.2
04/05 05:30 17.6 97 14.55 17.1 11 13 1015.7 0.2 32.1 35.1 63.3 167.0 176.6 612.2
04/05 05:20 17.4 97 14.37 16.9 9 11 1015.7 0.2 31.7 34.8 62.6 165.2 174.4 604.2
04/05 05:10 17.4 97 14.37 16.9 9 11 1015.6 0.2 31.7 34.8 62.6 165.2 174.4 604.2
04/05 05:00 17.5 96 14.31 16.9 7 9 1015.6 0.2 31.6 34.6 62.2 164.3 173.2 600.2
04/05 04:50 17.8 96 14.57 17.2 9 11 1015.6 0.2 32.1 35.0 63.2 166.8 176.5 611.6
04/05 04:40 18 96 14.74 17.4 9 11 1015.7 0.2 32.5 35.2 63.8 168.5 178.6 619.0
04/05 04:30 18.2 96 14.92 17.6 11 13 1015.8 0.2 32.9 35.5 64.5 170.3 180.9 627.0
04/05 04:20 18.5 95 15.03 17.7 11 11 1015.9 0.2 33.1 35.6 64.8 171.0 181.8 630.4
04/05 04:10 18.8 95 15.3 18 13 15 1015.8 0.2 33.6 36.0 65.8 173.7 185.2 642.2
04/05 04:00 19 94 15.32 18 15 17 1015.7 0.2 33.6 35.9 65.7 173.4 185.0 641.5
04/05 03:50 19.3 93 15.42 18.1 15 17 1015.8 0.2 33.8 36.0 65.9 174.0 185.8 644.3
04/05 03:40 19.5 93 15.61 18.3 15 15 1015.9 0.2 34.2 36.3 66.6 175.9 188.2 652.8
04/05 03:30 19.7 94 15.96 18.7 15 20 1015.9 0.2 35.0 36.8 68.1 179.8 193.1 669.7
04/05 03:20 19.7 94 15.96 18.7 15 17 1015.9 0.2 35.0 36.8 68.1 179.8 193.1 669.7
04/05 03:10 19.8 95 16.23 19 15 19 1015.9 0.2 35.5 37.3 69.3 183.0 197.0 683.3
04/05 03:00 19.8 95 16.23 19 17 22 1016 0.2 35.5 37.3 69.3 183.0 197.0 683.4
04/05 02:50 20 95 16.42 19.2 20 22 1016 0.2 35.9 37.6 70.0 184.9 199.4 691.8

Last Refresh: 04-May-2026 19:02:18

Bureau of Meteorology